createdAt,value
2018-11-20T00:00:45.006Z,13.23
2018-11-20T00:03:32.228Z,18.60
2018-11-20T00:06:16.958Z,16.87
2018-11-20T00:09:04.144Z,22.07
2018-11-20T00:12:06.647Z,20.27
2018-11-20T00:14:54.945Z,18.63
2018-11-20T00:17:44.950Z,20.47
2018-11-20T00:20:44.150Z,15.83
2018-11-20T00:23:46.183Z,18.83
2018-11-20T00:26:39.464Z,19.87
2018-11-20T00:29:25.030Z,18.57
2018-11-20T00:32:06.850Z,17.00
2018-11-20T00:34:52.725Z,18.57
2018-11-20T00:37:48.481Z,18.13
2018-11-20T00:40:53.823Z,17.63
2018-11-20T00:43:56.077Z,18.40
2018-11-20T00:46:42.307Z,18.97
2018-11-20T00:49:28.203Z,17.60
2018-11-20T00:52:13.728Z,18.13
2018-11-20T00:54:58.196Z,19.53
2018-11-20T00:57:53.158Z,19.23
2018-11-20T01:00:38.059Z,17.30
2018-11-20T01:03:21.539Z,18.87
2018-11-20T01:06:06.662Z,18.17
2018-11-20T01:08:42.400Z,18.53
2018-11-20T01:11:32.152Z,17.33
2018-11-20T01:14:17.646Z,19.03
2018-11-20T01:17:07.414Z,15.87
2018-11-20T01:19:51.299Z,17.30
2018-11-20T01:22:37.111Z,17.27
2018-11-20T01:25:17.074Z,17.60
2018-11-20T01:27:54.403Z,21.23
2018-11-20T01:30:56.586Z,16.87
2018-11-20T01:33:52.950Z,16.70
2018-11-20T01:36:45.955Z,20.43
2018-11-20T01:39:36.051Z,20.20
2018-11-20T01:42:23.265Z,23.40
2018-11-20T01:45:03.132Z,24.87
2018-11-20T01:47:56.132Z,17.57
2018-11-20T01:50:58.224Z,20.73
2018-11-20T01:53:43.953Z,19.70
2018-11-20T01:56:34.171Z,21.93
2018-11-20T01:59:21.292Z,17.87
2018-11-20T02:02:06.971Z,23.13
2018-11-20T02:04:56.931Z,24.60
2018-11-20T02:07:49.753Z,21.87
2018-11-20T02:10:37.049Z,21.77
2018-11-20T02:13:59.722Z,24.13
2018-11-20T02:16:54.996Z,22.80
2018-11-20T02:20:00.157Z,20.17
2018-11-20T02:22:52.859Z,23.90
2018-11-20T02:25:45.689Z,25.17
2018-11-20T02:28:31.221Z,16.30
2018-11-20T02:31:09.666Z,22.70
2018-11-20T02:34:05.595Z,20.50
2018-11-20T02:36:51.177Z,20.57
2018-11-20T02:39:32.097Z,17.30
2018-11-20T02:42:17.832Z,20.20
2018-11-20T02:45:03.368Z,18.57
2018-11-20T02:47:53.371Z,22.93
2018-11-20T02:50:46.149Z,17.77
2018-11-20T02:53:36.303Z,18.77
2018-11-20T02:56:17.261Z,18.37
2018-11-20T02:59:04.245Z,16.80
2018-11-20T03:01:57.086Z,17.47
2018-11-20T03:04:42.922Z,19.23
2018-11-20T03:07:30.136Z,18.53
2018-11-20T03:10:05.641Z,20.40
2018-11-20T03:12:51.088Z,18.73
2018-11-20T03:15:50.198Z,21.40
2018-11-20T03:18:26.811Z,20.93
2018-11-20T03:21:08.660Z,20.23
2018-11-20T03:24:03.422Z,21.63
2018-11-20T03:26:49.206Z,18.00
2018-11-20T03:30:27.730Z,19.53
2018-11-20T03:33:20.802Z,16.50
2018-11-20T03:36:20.253Z,20.70
2018-11-20T03:39:01.950Z,17.83
2018-11-20T03:41:45.607Z,20.37
2018-11-20T03:44:38.809Z,17.80
2018-11-20T03:47:24.789Z,15.50
2018-11-20T03:50:23.916Z,19.83
2018-11-20T03:53:01.152Z,13.57
2018-11-20T03:55:38.392Z,18.90
2018-11-20T03:58:43.717Z,18.20
2018-11-20T04:01:29.653Z,18.93
2018-11-20T04:04:20.698Z,17.20
2018-11-20T04:07:02.673Z,15.07
2018-11-20T04:09:58.790Z,19.77
2018-11-20T04:12:39.320Z,18.17
2018-11-20T04:15:29.540Z,19.67
2018-11-20T04:18:20.737Z,19.67
2018-11-20T04:21:06.443Z,21.17
2018-11-20T04:24:11.813Z,18.20
2018-11-20T04:27:06.061Z,19.33
2018-11-20T04:29:43.562Z,15.00
2018-11-20T04:32:23.696Z,18.63
2018-11-20T04:35:30.760Z,18.23
2018-11-20T04:38:14.042Z,20.00
2018-11-20T04:41:09.234Z,18.90
2018-11-20T04:43:49.676Z,19.93
2018-11-20T04:46:35.485Z,20.00
2018-11-20T04:49:21.147Z,15.57
2018-11-20T04:52:04.457Z,20.37
2018-11-20T04:54:50.321Z,20.90
2018-11-20T04:57:35.886Z,20.10
2018-11-20T05:00:26.081Z,22.17
2018-11-20T05:03:11.622Z,18.00
2018-11-20T05:05:57.141Z,19.13
2018-11-20T05:08:38.457Z,19.40
2018-11-20T05:11:34.648Z,20.93
2018-11-20T05:14:24.804Z,21.60
2018-11-20T05:17:03.443Z,23.03
2018-11-20T05:19:49.188Z,27.27
2018-11-20T05:22:30.619Z,21.73
2018-11-20T05:25:16.692Z,22.30
2018-11-20T05:28:07.173Z,20.67
2018-11-20T05:31:06.859Z,19.83
2018-11-20T05:34:05.808Z,18.30
2018-11-20T05:36:59.001Z,22.73
2018-11-20T05:39:50.581Z,18.43
2018-11-20T05:42:36.447Z,17.20
2018-11-20T05:45:14.930Z,19.73
2018-11-20T05:48:11.779Z,22.43
2018-11-20T05:50:57.518Z,19.87
2018-11-20T05:53:47.710Z,20.00
2018-11-20T05:56:33.413Z,17.50
2018-11-20T05:59:18.515Z,21.77
2018-11-20T06:01:54.351Z,24.97
2018-11-20T06:04:34.647Z,19.77
2018-11-20T06:07:24.567Z,21.57
2018-11-20T06:10:29.675Z,18.70
2018-11-20T06:13:20.813Z,21.83
2018-11-20T06:16:13.702Z,24.53
2018-11-20T06:18:50.169Z,22.00
2018-11-20T06:21:48.044Z,23.80
2018-11-20T06:24:38.477Z,25.57
2018-11-20T06:27:22.996Z,21.90
2018-11-20T06:30:10.259Z,21.97
2018-11-20T06:32:55.956Z,20.73
2018-11-20T06:35:42.254Z,23.03
2018-11-20T06:38:32.465Z,17.93
2018-11-20T06:43:50.072Z,21.13
2018-11-20T06:46:55.716Z,21.47
2018-11-20T06:49:43.087Z,23.70
2018-11-20T06:52:29.853Z,20.43
2018-11-20T06:55:31.378Z,22.33
2018-11-20T06:58:24.189Z,22.80
2018-11-20T07:01:17.195Z,23.67
2018-11-20T07:04:02.713Z,23.97
2018-11-20T07:07:05.381Z,24.53
2018-11-20T07:09:50.643Z,25.03
2018-11-20T07:12:36.488Z,25.50
2018-11-20T07:15:24.442Z,23.87
2018-11-20T07:18:23.407Z,21.33
2018-11-20T07:21:10.872Z,24.80
2018-11-20T07:26:36.148Z,25.13
2018-11-20T07:29:27.373Z,23.10
2018-11-20T07:32:25.410Z,23.03
2018-11-20T07:37:38.859Z,20.70
2018-11-20T07:40:24.909Z,26.57
2018-11-20T07:43:15.813Z,19.33
2018-11-20T07:46:01.413Z,20.00
2018-11-20T07:48:44.528Z,24.40
2018-11-20T07:51:40.300Z,23.60
2018-11-20T07:54:45.573Z,24.37
2018-11-20T07:57:38.537Z,21.50
2018-11-20T08:00:21.874Z,24.67
2018-11-20T08:03:07.682Z,27.50
2018-11-20T08:06:06.764Z,22.87
2018-11-20T08:08:59.605Z,25.97
2018-11-20T08:11:45.321Z,27.50
2018-11-20T08:14:33.239Z,24.27
2018-11-20T08:17:20.552Z,24.30
2018-11-20T08:20:06.727Z,24.80
2018-11-20T08:22:46.289Z,24.50
2018-11-20T08:25:36.651Z,23.17
2018-11-20T08:28:29.844Z,23.37
2018-11-20T08:31:16.972Z,23.63
2018-11-20T08:34:10.315Z,23.73
2018-11-20T08:37:15.911Z,26.63
2018-11-20T08:40:01.515Z,23.60
2018-11-20T08:42:51.584Z,25.83
2018-11-20T08:45:54.052Z,24.30
2018-11-20T08:48:37.111Z,25.30
2018-11-20T08:51:27.244Z,27.20
2018-11-20T08:54:14.509Z,24.90
2018-11-20T08:57:16.755Z,24.23
2018-11-20T09:00:10.042Z,24.27
2018-11-20T09:02:47.976Z,20.33
2018-11-20T09:05:52.974Z,24.30
2018-11-20T09:08:40.574Z,25.47
2018-11-20T09:11:26.703Z,20.13
2018-11-20T09:14:12.817Z,26.83
2018-11-20T09:16:58.537Z,25.17
2018-11-20T09:19:54.367Z,24.03
2018-11-20T09:22:39.918Z,25.40
2018-11-20T09:25:26.249Z,27.27
2018-11-20T09:28:13.300Z,24.83
2018-11-20T09:30:59.398Z,25.40
2018-11-20T09:33:45.220Z,25.97
2018-11-20T09:36:38.028Z,25.30
2018-11-20T09:39:19.072Z,25.07
2018-11-20T09:42:05.393Z,23.20
2018-11-20T09:45:20.589Z,25.47
2018-11-20T09:48:07.896Z,25.90
2018-11-20T09:50:58.251Z,23.93
2018-11-20T09:53:48.699Z,23.30
2018-11-20T09:56:28.224Z,24.07
2018-11-20T09:59:25.426Z,24.97
2018-11-20T10:02:11.923Z,27.47
2018-11-20T10:04:57.857Z,20.90
2018-11-20T10:07:43.389Z,27.17
2018-11-20T10:10:29.034Z,23.17
2018-11-20T10:13:05.183Z,29.77
2018-11-20T10:15:48.084Z,22.50
2018-11-20T10:18:33.570Z,29.07
2018-11-20T10:21:29.960Z,31.00
2018-11-20T10:24:19.840Z,28.37
2018-11-20T10:27:06.153Z,28.00
2018-11-20T10:29:50.963Z,26.70
2018-11-20T10:32:33.870Z,28.90
2018-11-20T10:35:19.453Z,31.17
2018-11-20T10:38:00.825Z,27.37
2018-11-20T10:40:46.330Z,27.57
2018-11-20T10:43:45.360Z,31.07
2018-11-20T10:46:31.004Z,26.00
2018-11-20T10:49:16.817Z,31.30
2018-11-20T10:52:02.319Z,26.37
2018-11-20T10:54:49.537Z,28.53
2018-11-20T10:57:48.912Z,28.47
2018-11-20T11:00:34.732Z,32.47
2018-11-20T11:03:20.474Z,25.37
2018-11-20T11:06:20.393Z,28.73
2018-11-20T11:09:06.568Z,28.50
2018-11-20T11:11:51.437Z,27.83
2018-11-20T11:14:38.701Z,29.77
2018-11-20T11:17:24.969Z,27.17
2018-11-20T11:20:04.006Z,26.97
2018-11-20T11:22:54.457Z,29.80
2018-11-20T11:25:40.022Z,28.63
2018-11-20T11:28:25.666Z,30.60
2018-11-20T11:31:15.660Z,24.87
2018-11-20T11:33:54.518Z,28.07
2018-11-20T11:36:40.914Z,25.30
2018-11-20T11:39:46.254Z,35.73
2018-11-20T11:42:24.547Z,27.97
2018-11-20T11:45:10.032Z,26.63
2018-11-20T11:47:55.550Z,30.30
2018-11-20T11:50:45.495Z,30.30
2018-11-20T11:53:32.468Z,31.80
2018-11-20T11:56:18.305Z,35.37
2018-11-20T11:59:16.356Z,30.90
2018-11-20T12:05:08.635Z,31.53
2018-11-20T12:07:48.437Z,27.30
2018-11-20T12:10:50.911Z,34.03
2018-11-20T12:13:47.181Z,31.63
2018-11-20T12:16:33.180Z,31.53
2018-11-20T12:19:20.432Z,29.43
2018-11-20T12:22:10.157Z,29.27
2018-11-20T12:24:56.068Z,35.87
2018-11-20T12:27:52.210Z,26.87
2018-11-20T12:30:42.050Z,32.77
2018-11-20T12:33:28.051Z,28.57
2018-11-20T12:36:14.251Z,33.20
2018-11-20T12:39:03.838Z,34.40
2018-11-20T12:41:53.600Z,31.83
2018-11-20T12:44:32.702Z,31.90
2018-11-20T12:47:31.613Z,28.03
2018-11-20T12:50:18.846Z,33.97
2018-11-20T12:53:02.522Z,35.37
2018-11-20T12:55:51.424Z,35.40
2018-11-20T12:58:54.126Z,34.40
2018-11-20T13:01:40.577Z,35.33
2018-11-20T13:04:28.673Z,30.63
2018-11-20T13:07:12.483Z,28.80
2018-11-20T13:10:08.401Z,29.00
2018-11-20T13:13:01.838Z,33.27
2018-11-20T13:15:53.420Z,32.20
2018-11-20T13:18:29.666Z,32.97
2018-11-20T13:21:16.875Z,30.67
2018-11-20T13:24:02.709Z,28.77
2018-11-20T13:26:49.937Z,35.23
2018-11-20T13:29:35.766Z,29.47
2018-11-20T13:32:31.638Z,33.10
2018-11-20T13:35:14.598Z,32.90
2018-11-20T13:38:00.868Z,24.87
2018-11-20T13:41:35.105Z,28.33
2018-11-20T13:44:34.456Z,29.40
2018-11-20T13:47:31.980Z,36.37
2018-11-20T13:50:16.374Z,31.93
2018-11-20T13:53:12.926Z,29.90
2018-11-20T13:56:01.190Z,26.77
2018-11-20T13:58:51.748Z,30.53
2018-11-20T14:01:42.350Z,25.50
2018-11-20T14:04:33.698Z,35.40
2018-11-20T14:07:42.720Z,34.10
2018-11-20T14:10:28.841Z,36.30
2018-11-20T14:13:15.579Z,33.77
2018-11-20T14:15:56.995Z,32.97
2018-11-20T14:18:45.625Z,34.53
2018-11-20T14:21:27.113Z,27.90
2018-11-20T14:24:18.369Z,34.97
2018-11-20T14:27:04.575Z,32.23
2018-11-20T14:29:51.164Z,32.73
2018-11-20T14:32:39.600Z,34.73
2018-11-20T14:35:30.529Z,31.97
2018-11-20T14:38:18.109Z,30.67
2018-11-20T14:41:04.617Z,30.60
2018-11-20T14:43:52.301Z,28.87
2018-11-20T14:46:52.200Z,25.27
2018-11-20T14:49:41.047Z,29.77
2018-11-20T14:52:35.313Z,29.07
2018-11-20T14:55:23.754Z,32.90
2018-11-20T14:58:14.109Z,29.43
2018-11-20T15:01:00.687Z,24.30
2018-11-20T15:04:00.098Z,31.80
2018-11-20T15:06:46.589Z,26.57
2018-11-20T15:09:49.040Z,30.93
2018-11-20T15:12:34.659Z,29.00
2018-11-20T15:15:40.060Z,32.37
2018-11-20T15:18:18.775Z,30.53
2018-11-20T15:20:55.844Z,28.70
2018-11-20T15:23:36.571Z,28.23
2018-11-20T15:26:41.566Z,29.27
2018-11-20T15:29:27.186Z,32.07
2018-11-20T15:32:12.722Z,30.17
2018-11-20T15:34:58.154Z,30.00
2018-11-20T15:37:41.281Z,27.97
2018-11-20T15:40:24.572Z,32.43
2018-11-20T15:43:26.353Z,28.87
2018-11-20T15:46:19.111Z,27.90
2018-11-20T15:49:11.932Z,28.80
2018-11-20T15:51:57.767Z,28.43
2018-11-20T15:54:50.560Z,21.93
2018-11-20T15:57:46.370Z,26.67
2018-11-20T16:00:32.306Z,22.90
2018-11-20T16:03:23.075Z,21.07
2018-11-20T16:06:14.787Z,25.63
2018-11-20T16:09:02.535Z,27.00
2018-11-20T16:11:58.502Z,26.30
2018-11-20T16:14:44.458Z,21.83
2018-11-20T16:17:20.920Z,22.40
2018-11-20T16:20:23.234Z,21.93
2018-11-20T16:23:25.277Z,21.03
2018-11-20T16:26:21.308Z,23.40
2018-11-20T16:29:17.418Z,25.70
2018-11-20T16:31:57.162Z,20.20
2018-11-20T16:34:47.362Z,23.80
2018-11-20T16:37:34.348Z,24.70
2018-11-20T16:40:20.353Z,24.47
2018-11-20T16:43:07.468Z,17.73
2018-11-20T16:45:53.397Z,21.23
2018-11-20T16:48:38.860Z,22.53
2018-11-20T16:51:18.598Z,22.17
2018-11-20T16:53:55.698Z,22.90
2018-11-20T16:56:45.343Z,22.20
2018-11-20T16:59:44.638Z,19.73
2018-11-20T17:02:33.413Z,18.03
2018-11-20T17:05:25.380Z,18.00
2018-11-20T17:08:05.844Z,20.40
2018-11-20T17:11:00.776Z,23.23
2018-11-20T17:13:50.514Z,17.07
2018-11-20T17:16:49.893Z,18.60
2018-11-20T17:19:35.884Z,16.83
2018-11-20T17:22:21.620Z,15.90
2018-11-20T17:25:19.812Z,20.13
2018-11-20T17:28:21.883Z,16.50
2018-11-20T17:31:07.441Z,17.77
2018-11-20T17:33:59.693Z,17.13
2018-11-20T17:36:46.870Z,18.00
2018-11-20T17:39:32.535Z,15.93
2018-11-20T17:42:18.181Z,20.43
2018-11-20T17:45:03.800Z,15.57
2018-11-20T17:47:49.458Z,15.77
2018-11-20T17:55:33.555Z,18.20
2018-11-20T17:58:15.852Z,16.67
2018-11-20T18:01:11.753Z,18.80
2018-11-20T18:04:01.795Z,20.23
2018-11-20T18:06:54.733Z,21.27
2018-11-20T18:09:44.471Z,21.00
2018-11-20T18:12:50.339Z,13.27
2018-11-20T18:15:43.477Z,21.17
2018-11-20T18:18:49.410Z,17.33
2018-11-20T18:21:35.211Z,14.97
2018-11-20T18:24:28.360Z,18.83
2018-11-20T18:29:34.789Z,18.83
2018-11-20T18:39:51.996Z,18.23
2018-11-20T18:42:39.630Z,18.50
2018-11-20T18:45:30.407Z,15.40
2018-11-20T18:48:23.122Z,21.03
2018-11-20T18:51:08.992Z,20.30
2018-11-20T18:54:01.860Z,22.43
2018-11-20T18:56:48.039Z,20.33
2018-11-20T18:59:35.119Z,21.80
2018-11-20T19:02:20.857Z,20.93
2018-11-20T19:06:08.008Z,21.80
2018-11-20T19:08:54.414Z,23.20
2018-11-20T19:11:52.274Z,19.07
2018-11-20T19:14:41.869Z,20.30
2018-11-20T19:17:27.004Z,22.97
2018-11-20T19:20:16.978Z,23.53
2018-11-20T19:23:02.214Z,22.53
2018-11-20T19:26:00.763Z,23.63
2018-11-20T19:28:50.118Z,18.53
2018-11-20T19:31:41.633Z,22.70
2018-11-20T19:34:35.242Z,23.47
2018-11-20T19:37:27.219Z,20.50
2018-11-20T19:40:22.688Z,24.13
2018-11-20T19:43:28.309Z,20.63
2018-11-20T19:46:13.327Z,23.60
2018-11-20T19:48:56.646Z,24.30
2018-11-20T19:51:41.794Z,26.43
2018-11-20T19:54:43.316Z,23.63
2018-11-20T19:57:44.821Z,24.87
2018-11-20T20:00:31.123Z,24.93
2018-11-20T20:03:16.385Z,22.47
2018-11-20T20:06:05.606Z,23.60
2018-11-20T20:08:52.558Z,23.70
2018-11-20T20:11:37.828Z,22.53
2018-11-20T20:14:17.052Z,19.10
2018-11-20T20:17:02.206Z,23.00
2018-11-20T20:19:54.560Z,22.13
2018-11-20T20:22:39.996Z,25.37
2018-11-20T20:25:32.628Z,24.90
2018-11-20T20:28:27.919Z,23.80
2018-11-20T20:31:04.579Z,23.33
2018-11-20T20:33:58.138Z,27.63
2018-11-20T20:36:40.557Z,27.13
2018-11-20T20:39:37.038Z,26.90
2018-11-20T20:42:26.392Z,27.23
2018-11-20T20:45:11.689Z,26.73
2018-11-20T20:47:47.707Z,27.37
2018-11-20T20:50:25.983Z,24.97
2018-11-20T20:53:18.139Z,26.57
2018-11-20T20:56:03.168Z,28.97
2018-11-20T20:58:55.578Z,27.77
2018-11-20T21:01:39.617Z,27.83
2018-11-20T21:04:29.497Z,25.40
2018-11-20T21:07:28.336Z,30.37
2018-11-20T21:10:17.699Z,30.37
2018-11-20T21:12:59.063Z,27.23
2018-11-20T21:15:43.920Z,25.67
2018-11-20T21:18:33.088Z,29.47
2018-11-20T21:21:28.295Z,25.47
2018-11-20T21:24:06.176Z,30.43
2018-11-20T21:27:04.888Z,28.77
2018-11-20T21:30:06.706Z,24.47
2018-11-20T21:32:51.428Z,26.87
2018-11-20T21:35:37.521Z,28.77
2018-11-20T21:38:16.899Z,35.17
2018-11-20T21:41:05.713Z,30.47
2018-11-20T21:43:58.121Z,30.63
2018-11-20T21:46:53.407Z,26.73
2018-11-20T21:49:38.697Z,29.47
2018-11-20T21:52:34.142Z,33.27
2018-11-20T21:55:23.862Z,31.53
2018-11-20T21:58:04.900Z,24.00
2018-11-20T22:01:00.457Z,33.60
2018-11-20T22:03:41.390Z,31.00
2018-11-20T22:06:26.739Z,29.63
2018-11-20T22:09:33.364Z,29.80
2018-11-20T22:12:26.115Z,33.47
2018-11-20T22:15:21.499Z,36.97
2018-11-20T22:18:06.809Z,32.17
2018-11-20T22:20:52.170Z,34.73
2018-11-20T22:23:50.870Z,34.50
2018-11-20T22:26:36.404Z,34.60
2018-11-20T22:29:21.452Z,34.20
2018-11-20T22:32:06.562Z,33.83
2018-11-20T22:35:04.934Z,34.60
2018-11-20T22:37:51.482Z,32.17
2018-11-20T22:40:43.919Z,35.43
2018-11-20T22:43:21.780Z,29.87
2018-11-20T22:46:07.010Z,34.97
2018-11-20T22:48:59.160Z,36.17
2018-11-20T22:51:45.406Z,30.87
2018-11-20T22:54:37.631Z,35.50
2018-11-20T22:57:20.906Z,34.60
2018-11-20T23:00:16.248Z,36.20
2018-11-20T23:02:53.821Z,36.33
2018-11-20T23:05:45.721Z,35.67
2018-11-20T23:08:12.480Z,38.40
2018-11-20T23:10:39.291Z,35.50
2018-11-20T23:13:06.081Z,35.27
2018-11-20T23:15:32.822Z,38.50
2018-11-20T23:17:59.553Z,35.30
2018-11-20T23:20:26.333Z,30.20
2018-11-20T23:22:53.147Z,38.10
2018-11-20T23:25:19.871Z,37.67
2018-11-20T23:27:46.649Z,37.97
2018-11-20T23:30:14.363Z,37.60
2018-11-20T23:32:41.398Z,38.83
2018-11-20T23:35:09.222Z,38.90
2018-11-20T23:37:36.414Z,40.37
2018-11-20T23:40:03.675Z,36.07
2018-11-20T23:42:30.477Z,34.67
2018-11-20T23:44:57.219Z,39.83
2018-11-20T23:47:23.975Z,38.47
2018-11-20T23:49:50.833Z,34.77
2018-11-20T23:52:17.563Z,35.07
2018-11-20T23:54:44.284Z,36.37
2018-11-20T23:57:11.081Z,41.00
2018-11-20T23:59:37.808Z,36.70
